• Join FlightAware (Why Join?)
  • Login
  • US Flag 
02:40AM EST


 

Airport Tracker/Info


-or-


 

Live Flight TrackerFlight Track Log ✈ ASQ5678 ✈ 30-Apr-2013 ✈ KEWR - KCVG

Flight Track Log - Related Links

Times and Time Zones

All times are in EDT time to prevent confusion due to time zone crossing. See the ASQ5678 flight status page for this flight to view local times or setup timezone preferences in your user account.

Time Position Orientation Groundspeed Altitude Reporting Facility
EDT Latitude Longitude Course Direction KTS MPH feet Rate Location/Type
04:35PM 40.6333 -74.2167 270° West 212 244 2,900  Level New York TRACON
04:36PM 40.5833 -74.2833 225° Southwest 259 298 5,100 2,280 Climbing New York TRACON
04:37PM 40.6834 -74.5641 270° West  Level FlightAware Approximate
04:37PM 40.5833 -74.3833 270° West 283 326 7,800  Level New York TRACON
04:38PM 40.6833 -74.6965 270° West  Level FlightAware Approximate
04:38PM 40.5833 -74.4833 270° West 281 323 10,300  Level New York TRACON
04:39PM 40.6834 -74.8290 270° West  Level FlightAware Approximate
04:39PM 40.5833 -74.5833 270° West 328 377 11,100  Level New York TRACON
04:40PM 40.6833 -74.9614 270° West  Level FlightAware Approximate
04:41PM 40.6667 -75.0915 270° West  Level FlightAware Approximate
04:41PM 40.6375 -74.8350 286° West 377 434 12,800  Level New York Center
04:42PM 40.6989 -74.9261 312° West 350 403 15,000 1,560 Climbing New York Center
04:43PM 40.6922 -75.0572 266° West 319 367 16,000 1,020 Climbing New York Center
04:44PM 40.6397 -75.1769 240° Southwest 346 398 17,100 1,320 Climbing New York Center
04:45PM 40.5922 -75.2806 239° Southwest 372 428 18,600 1,500 Climbing New York Center
04:46PM 40.5331 -75.4078 239° Southwest 378 435 20,200 1,440 Climbing New York Center
04:47PM 40.4803 -75.5269 240° Southwest 373 429 21,600 1,380 Climbing New York Center
04:48PM 40.4236 -75.6431 237° Southwest 373 429 23,100 1,500 Climbing New York Center
04:49PM 40.3706 -75.7644 240° Southwest 373 429 24,600 1,440 Climbing New York Center
04:50PM 40.3156 -75.8803 238° Southwest 373 429 26,000 1,320 Climbing New York Center
04:52PM 40.2083 -76.1075 238° Southwest 386 444 28,600 1,260 Climbing Washington Center
04:53PM 40.1536 -76.2239 238° Southwest 381 438 29,800 1,140 Climbing Washington Center
04:54PM 40.0989 -76.3453 240° Southwest 388 447 30,900 1,080 Climbing Washington Center
04:55PM 40.0417 -76.4667 238° Southwest 388 447 32,000 1,140 Climbing Washington Center
04:56PM 39.9867 -76.5769 237° Southwest 397 457 33,200 1,560 Climbing Washington Center
04:57PM 39.9336 -76.6956 240° Southwest 403 464 35,100 1,380 Climbing Washington Center
04:58PM 39.8764 -76.8081 236° Southwest 393 452 36,000 420 Climbing Washington Center
04:59PM 39.8208 -76.9289 239° Southwest 388 447 36,000  Level Washington Center
05:00PM 39.7611 -77.0544 238° Southwest 395 455 36,000  Level Washington Center
05:01PM 39.6989 -77.1881 239° Southwest 416 479 36,000  Level Washington Center
05:02PM 39.6367 -77.3242 239° Southwest 431 496 36,000  Level Washington Center
05:03PM 39.5722 -77.4572 238° Southwest 439 505 36,000  Level Washington Center
05:04PM 39.5075 -77.5953 239° Southwest 444 511 36,000  Level Washington Center
05:05PM 39.4569 -77.7364 245° Southwest 438 504 36,000  Level Washington Center
05:06PM 39.4231 -77.8833 253° West 433 498 36,000  Level Washington Center
05:07PM 39.3850 -78.0244 251° West 427 491 36,000  Level Washington Center
05:08PM 39.3486 -78.1681 252° West 422 486 36,000  Level Washington Center
05:09PM 39.3122 -78.3089 252° West 422 486 36,000  Level Washington Center
05:10PM 39.2756 -78.4469 251° West 422 486 36,000  Level Washington Center
05:11PM 39.2389 -78.5903 252° West 422 486 36,000  Level Washington Center
05:12PM 39.1997 -78.7281 250° West 422 486 36,000  Level Washington Center
05:13PM 39.1628 -78.8708 252° West 422 486 36,000  Level Washington Center
05:14PM 39.1253 -79.0164 252° West 422 486 36,000  Level Washington Center
05:15PM 39.0856 -79.1589 250° West 422 486 36,000  Level Washington Center
05:16PM 39.0478 -79.3069 252° West 427 491 36,000  Level Washington Center
05:17PM 39.0100 -79.4492 251° West 427 491 36,000 -240 Level Washington Center
05:18PM 38.9675 -79.6019 250° West 437 503 35,600 -540 Descending Washington Center
05:19PM 38.9269 -79.7517 251° West 448 516 35,000 -300 Descending Washington Center
05:20PM 38.8864 -79.8933 250° West 443 510 35,000  Level Washington Center
05:21PM 38.8433 -80.0483 250° West 426 490 35,000  Level Washington Center
05:22PM 38.8181 -80.1656 255° West 424 488 35,000  Level Indianapolis Center
05:23PM 38.8131 -80.3178 268° West 428 493 35,000  Level Indianapolis Center
05:24PM 38.8103 -80.4719 269° West 433 498 35,000  Level Indianapolis Center
05:25PM 38.8047 -80.6267 267° West 435 501 35,000 -180 Level Indianapolis Center
05:26PM 38.8000 -80.8117 268° West 434 499 34,700 -660 Descending Indianapolis Center
05:27PM 38.7947 -80.9678 268° West 438 504 33,700 -1,020 Descending Indianapolis Center
05:28PM 38.7894 -81.1242 268° West 439 505 32,700 -1,020 Descending Indianapolis Center
05:29PM 38.7836 -81.2822 267° West 445 512 31,600 -840 Descending Indianapolis Center
05:31PM 38.7783 -81.4392 268° West 448 516 31,000 -300 Descending Indianapolis Center
05:32PM 38.7481 -81.6069 257° West 449 517 31,000  Level Indianapolis Center
05:33PM 38.7164 -81.7675 256° West 444 511 31,000  Level Indianapolis Center
05:34PM 38.6867 -81.9161 256° West 436 502 31,000  Level Indianapolis Center
05:35PM 38.6569 -82.0639 256° West 430 495 31,000 -120 Level Indianapolis Center
05:36PM 38.6261 -82.2156 255° West 440 506 30,800 -540 Descending Indianapolis Center
05:37PM 38.5897 -82.3936 255° West 430 495 29,900 -1,080 Descending Indianapolis Center
05:38PM 38.5636 -82.5200 255° West 408 470 28,600 -1,620 Descending Indianapolis Center
05:39PM 38.5294 -82.6869 255° West 415 478 26,600 -1,980 Descending Indianapolis Center
05:40PM 38.4983 -82.8358 255° West 430 495 24,600 -1,740 Descending Indianapolis Center
05:41PM 38.4664 -82.9878 255° West 439 505 23,000 -1,560 Descending Indianapolis Center
05:42PM 38.4458 -83.1267 259° West 404 465 21,400 -1,800 Descending Indianapolis Center
05:43PM 38.4717 -83.2675 283° West 408 470 19,400 -2,100 Descending Indianapolis Center
05:44PM 38.5075 -83.4306 286° West 409 471 17,100 -2,220 Descending Indianapolis Center
05:45PM 38.5358 -83.5631 285° West 390 449 14,900 -2,160 Descending Indianapolis Center
05:46PM 38.5653 -83.6922 286° West 381 438 12,700 -2,220 Descending Indianapolis Center
05:47PM 38.5897 -83.8172 284° West 367 422 10,400 -1,320 Descending Indianapolis Center
05:48PM 38.6217 -83.9394 289° West 364 419 10,000 -240 Descending Indianapolis Center
05:49PM 38.6797 -84.0492 304° West 364 419 10,000  Level Indianapolis Center
05:50PM 38.7453 -84.1758 304° West 362 417 10,000  Level Indianapolis Center
05:51PM 38.7994 -84.2822 303° West 355 409 10,000  Level Indianapolis Center
05:52PM 38.8553 -84.3892 304° West 356 410 10,000  Level Indianapolis Center
05:53PM 38.9000 -84.4667 307° West 338 389 10,000 -480 Level Cincinnati TRACON
05:54PM 38.9500 -84.5333 314° West 286 329 9,200 -1,140 Descending Cincinnati TRACON
05:55PM 39.0333 -84.5333 360° North 272 313 7,800 -1,440 Descending Cincinnati TRACON
05:56PM 39.1000 -84.5333 360° North 252 290 6,400 -1,380 Descending Cincinnati TRACON
05:57PM 39.1667 -84.5500 349° North 244 281 5,100 -1,020 Descending Cincinnati TRACON
05:57PM 39.1831 -84.5686 319° Northwest 265 305 5,000 -1,020 Descending Indianapolis Center
05:58PM 39.1686 -84.6392 255° West 230 265 3,700 -1,260 Descending Indianapolis Center